• Join FlightAware (Why Join?)
  • Login
  • US Flag 
11:08PM EDT


 

Airport Tracker/Info


-or-


 

Live Flight TrackerFlight Track Log ✈ UAL4236 ✈ 13-Apr-2013 ✈ KIAH - KELP

Flight Track Log - Related Links

Times and Time Zones

All times are in EDT time to prevent confusion due to time zone crossing. See the UAL4236 flight status page for this flight to view local times or setup timezone preferences in your user account.

Time Position Orientation Groundspeed Altitude Reporting Facility
EDT Latitude Longitude Course Direction KTS MPH feet Rate Location/Type
10:11AM 29.9594 -95.3414 291° West 159 183 800  Level Houston Center
10:11AM 29.9278 -95.3622 210° Southwest 208 239 2,100 1,200 Climbing Houston Center
10:12AM 29.9117 -95.3942 240° Southwest 234 269 2,500 1,620 Climbing Houston Center
10:12AM 29.9031 -95.4375 257° West 299 344 3,800 2,100 Climbing Houston Center
10:13AM 29.9119 -95.4786 284° West 280 322 4,700 2,280 Climbing Houston Center
10:14AM 30.0333 -95.7993 277° West  Level FlightAware Approximate
10:14AM 29.9264 -95.5311 288° West 303 349 6,400  Level Houston Center
10:14AM 29.9406 -95.5839 287° West 289 333 7,900 2,280 Climbing Houston Center
10:15AM 30.0431 -95.9165 276° West  Level FlightAware Approximate
10:15AM 29.9642 -95.6681 288° West 280 322 10,100  Level Houston Center
10:16AM 30.0606 -96.0317 291° West  Level FlightAware Approximate
10:16AM 29.9889 -95.7594 287° West 296 341 11,300  Level Houston Center
10:17AM 30.0161 -95.8639 287° West 336 387 12,300 1,020 Climbing Houston Center
10:18AM 30.0456 -95.9717 288° West 350 403 13,500 1,260 Climbing Houston Center
10:19AM 30.0742 -96.0858 286° West 361 415 15,000 1,380 Climbing Houston Center
10:20AM 30.0914 -96.1958 280° West 353 406 16,400 1,260 Climbing Houston Center
10:21AM 30.1081 -96.3075 280° West 354 407 17,600 1,260 Climbing Houston Center
10:22AM 30.1267 -96.4353 280° West 358 412 19,000 1,140 Climbing Houston Center
10:23AM 30.1444 -96.5492 280° West 358 412 20,000 960 Climbing Houston Center
10:24AM 30.1628 -96.6664 280° West 364 419 21,100 1,020 Climbing Houston Center
10:25AM 30.1800 -96.7864 279° West 371 427 22,100 1,020 Climbing Houston Center
10:26AM 30.1992 -96.9017 281° West 365 420 23,200 1,260 Climbing Houston Center
10:27AM 30.2192 -97.0414 279° West 369 425 24,800 1,440 Climbing Houston Center
10:28AM 30.2358 -97.1561 280° West 362 417 26,200 1,380 Climbing Houston Center
10:30AM 30.2514 -97.2664 279° West 350 403 27,700 1,320 Climbing Houston Center
10:31AM 30.2667 -97.3711 280° West 333 383 29,000 1,080 Climbing Houston Center
10:32AM 30.2822 -97.4775 280° West 330 380 30,000 960 Climbing Houston Center
10:33AM 30.2978 -97.5872 279° West 338 389 31,000 1,020 Climbing Houston Center
10:34AM 30.3161 -97.6953 281° West 340 391 32,100 1,080 Climbing Houston Center
10:35AM 30.3369 -97.8031 283° West 338 389 33,300 900 Climbing Houston Center
10:36AM 30.3586 -97.9094 283° West 336 387 34,000 300 Climbing Houston Center
10:37AM 30.3797 -98.0203 282° West 342 394 34,000  Level Houston Center
10:38AM 30.4019 -98.1408 282° West 367 422 34,000  Level Houston Center
10:39AM 30.4267 -98.2642 283° West 382 440 34,000  Level Houston Center
10:40AM 30.4544 -98.4094 283° West 389 448 34,000  Level Houston Center
10:41AM 30.4778 -98.5331 282° West 390 449 34,000  Level Houston Center
10:42AM 30.5003 -98.6572 282° West 389 448 34,000  Level Houston Center
10:43AM 30.5239 -98.7822 282° West 394 453 34,000  Level Houston Center
10:44AM 30.5483 -98.9075 283° West 395 455 34,000  Level Houston Center
10:45AM 30.5728 -99.0328 283° West 394 453 34,000  Level Houston Center
10:46AM 30.5961 -99.1550 283° West 395 455 34,000  Level Houston Center
10:47AM 30.6192 -99.2803 282° West 397 457 34,000  Level Houston Center
10:48AM 30.6414 -99.4039 282° West 395 455 34,000  Level Houston Center
10:49AM 30.6678 -99.5481 282° West 386 444 34,000  Level Houston Center
10:50AM 30.6883 -99.6683 281° West 383 441 34,000  Level Houston Center
10:51AM 30.7086 -99.7850 281° West 372 428 34,000  Level Houston Center
10:52AM 30.7300 -99.9047 282° West 383 441 34,000  Level Houston Center
10:53AM 30.7511 -100.0244 282° West 381 438 34,000  Level Houston Center
10:54AM 30.7725 -100.1447 282° West 380 437 34,000  Level Houston Center
10:55AM 30.7986 -100.2892 282° West 378 435 34,000  Level Houston Center
10:56AM 30.8197 -100.4106 281° West 384 442 34,000  Level Houston Center
10:57AM 30.8403 -100.5306 281° West 379 436 34,000  Level Houston Center
10:58AM 30.8628 -100.6533 282° West 382 440 34,000  Level Houston Center
10:59AM 30.8825 -100.7769 281° West 382 440 34,000  Level Houston Center
11:00AM 30.9044 -100.9008 282° West 384 442 34,000  Level Houston Center
11:01AM 30.9300 -101.0475 282° West 384 442 34,000  Level Houston Center
11:02AM 30.9514 -101.1706 281° West 387 445 34,000  Level Houston Center
11:03AM 30.9694 -101.2939 280° West 390 449 34,000  Level Houston Center
11:04AM 30.9908 -101.4189 281° West 392 451 34,000  Level Houston Center
11:05AM 30.9981 -101.4686 280° West 393 452 34,000  Level Albuquerque Center
11:06AM 31.0194 -101.5953 281° West 397 457 34,000  Level Albuquerque Center
11:07AM 31.0439 -101.7478 281° West 399 459 34,000  Level Albuquerque Center
11:08AM 31.0650 -101.8756 281° West 399 459 34,000  Level Albuquerque Center
11:09AM 31.0861 -102.0125 280° West 418 481 34,000  Level Albuquerque Center
11:10AM 31.1064 -102.1397 281° West 406 467 34,000  Level Albuquerque Center
11:11AM 31.1258 -102.2678 280° West 402 463 34,000  Level Albuquerque Center
11:12AM 31.1472 -102.3964 281° West 403 464 34,000  Level Albuquerque Center
11:13AM 31.1672 -102.5244 280° West 402 463 34,000  Level Albuquerque Center
11:14AM 31.1872 -102.6572 280° West 401 461 34,000  Level Albuquerque Center
11:15AM 31.2078 -102.7875 280° West 404 465 34,000  Level Albuquerque Center
11:16AM 31.2272 -102.9156 280° West 403 464 34,000  Level Albuquerque Center
11:17AM 31.2503 -103.0653 280° West 394 453 34,000  Level Albuquerque Center
11:18AM 31.2678 -103.1911 279° West 393 452 34,000  Level Albuquerque Center
11:19AM 31.2881 -103.3164 281° West 391 450 34,000 -60 Level Albuquerque Center
11:20AM 31.3067 -103.4422 280° West 392 451 33,900  Descending Albuquerque Center
11:21AM 31.3244 -103.5681 279° West 393 452 34,000  Climbing Albuquerque Center
11:22AM 31.3433 -103.6939 280° West 393 452 34,000  Level Albuquerque Center
11:23AM 31.3614 -103.8231 279° West 395 455 34,000  Level Albuquerque Center
11:24AM 31.3839 -103.9744 280° West 394 453 34,000  Level Albuquerque Center
11:26AM 31.4031 -104.1022 280° West 398 458 34,000  Level Albuquerque Center
11:27AM 31.4211 -104.2300 279° West 400 460 34,000  Level Albuquerque Center
11:28AM 31.4411 -104.3614 280° West 405 466 34,000 -300 Level Albuquerque Center
11:29AM 31.4581 -104.4925 279° West 409 471 33,400 -1,500 Descending Albuquerque Center
11:30AM 31.4714 -104.6250 277° West 411 473 30,900 -2,340 Descending Albuquerque Center
11:31AM 31.4847 -104.7608 277° West 416 479 28,700 -2,400 Descending Albuquerque Center
11:32AM 31.5019 -104.9239 277° West 421 484 26,100 -2,340 Descending Albuquerque Center
11:33AM 31.5156 -105.0594 277° West 419 482 23,900 -2,220 Descending Albuquerque Center
11:34AM 31.5294 -105.1908 277° West 418 481 21,600 -2,400 Descending Albuquerque Center
11:34AM 31.5358 -105.2914 274° West 414 476 19,900 -2,280 Descending Albuquerque Center
11:35AM 31.5425 -105.3228 284° West 414 476 19,300 -2,160 Descending Albuquerque Center
11:36AM 31.5539 -105.4514 276° West 402 463 16,900 -2,520 Descending Albuquerque Center
11:36AM 31.5633 -105.5614 276° West 377 434 15,000 -2,520 Descending Albuquerque Center
11:37AM 31.5722 -105.5956 287° West 379 436 14,300 -2,100 Descending Albuquerque Center
11:38AM 31.6000 -105.6769 292° West 386 444 12,900 -2,100 Descending Albuquerque Center
11:38AM 31.6125 -105.7106 294° West 379 436 12,200 -2,100 Descending Albuquerque Center
11:39AM 31.6425 -105.8008 291° West 379 436 10,600 -1,860 Descending Albuquerque Center
11:39AM 31.6522 -105.8242 296° West 377 434 10,300 -600 Descending Albuquerque Center
11:40AM 31.6814 -105.9058 293° West 349 402 10,000 -540 Descending Albuquerque Center
11:40AM 31.6886 -105.9261 293° West 330 380 9,800 -1,320 Descending Albuquerque Center
11:41AM 31.7128 -105.9956 292° West 273 314 8,700 -1,620 Descending Albuquerque Center
11:42AM 31.7381 -106.0864 288° West 269 310 7,000 -1,620 Descending Albuquerque Center
11:42AM 31.7425 -106.0972 296° West 272 313 6,600 -1,320 Descending Albuquerque Center
11:43AM 31.7608 -106.1633 288° West 239 275 5,700 -1,020 Descending Albuquerque Center
11:43AM 31.7639 -106.1725 291° West 246 283 5,600 -300 Descending Albuquerque Center